Terminal Aerodrome Forecast
Issued by NWS Topeka, KS

Home | Current Version | Previous Version | Graphics & Text | Print | Product List | Glossary On
Versions: 1 2 3 4 5 6 7 8 9 10 11 12 13 14 15 16 17 18 19 20 21 22
121
FTUS43 KTOP 300011 AAA
TAFTOP
TAF AMD
KTOP 300011Z 3000/3024 06013KT P6SM VCTS SCT010 BKN035CB
      TEMPO 3000/3001 VRB20G30KT 2SM TSRA BKN006CB
     FM300200 03010KT 6SM -SHRA OVC010
     FM300600 36008KT 3SM -SHRA OVC008
     FM301800 34011KT P6SM OVC008=

USA.gov is the U.S. government's official web portal to all federal, state and local government web resources and services.